createdAt,value
2017-12-14T00:00:53.340Z,1.10
2017-12-14T00:03:20.888Z,0.73
2017-12-14T00:05:49.165Z,0.90
2017-12-14T00:08:16.704Z,1.00
2017-12-14T00:10:44.216Z,0.73
2017-12-14T00:13:11.756Z,1.30
2017-12-14T00:15:39.256Z,0.90
2017-12-14T00:18:06.808Z,1.40
2017-12-14T00:20:34.312Z,1.13
2017-12-14T00:23:02.584Z,1.47
2017-12-14T00:25:30.121Z,1.20
2017-12-14T00:27:57.627Z,1.10
2017-12-14T00:30:25.185Z,0.97
2017-12-14T00:32:52.712Z,1.77
2017-12-14T00:35:20.265Z,1.40
2017-12-14T00:37:48.540Z,1.00
2017-12-14T00:40:16.085Z,1.40
2017-12-14T00:42:43.588Z,1.37
2017-12-14T00:45:11.152Z,1.20
2017-12-14T00:47:38.664Z,1.23
2017-12-14T00:50:06.180Z,1.40
2017-12-14T00:52:33.720Z,1.00
2017-12-14T00:55:01.236Z,1.40
2017-12-14T00:57:28.787Z,2.03
2017-12-14T00:59:56.304Z,1.70
2017-12-14T01:02:23.857Z,1.90
2017-12-14T01:04:51.374Z,1.03
2017-12-14T01:07:18.916Z,1.03
2017-12-14T01:09:47.196Z,1.07
2017-12-14T01:12:14.740Z,0.70
2017-12-14T01:14:42.257Z,1.10
2017-12-14T01:17:09.825Z,1.40
2017-12-14T01:19:38.100Z,1.30
2017-12-14T01:22:05.612Z,1.40
2017-12-14T01:24:33.227Z,1.00
2017-12-14T01:27:00.796Z,1.13
2017-12-14T01:29:28.308Z,1.23
2017-12-14T01:31:55.832Z,0.83
2017-12-14T01:34:23.379Z,1.50
2017-12-14T01:36:50.901Z,1.50
2017-12-14T01:39:18.443Z,1.07
2017-12-14T01:41:45.956Z,1.37
2017-12-14T01:44:13.512Z,0.90
2017-12-14T01:46:41.028Z,1.23
2017-12-14T01:49:08.568Z,1.20
2017-12-14T01:51:36.845Z,1.47
2017-12-14T01:54:04.397Z,1.10
2017-12-14T01:56:31.912Z,0.97
2017-12-14T01:59:00.217Z,0.83
2017-12-14T02:01:27.736Z,1.90
2017-12-14T02:03:55.298Z,1.67
2017-12-14T02:06:22.805Z,1.70
2017-12-14T02:08:50.317Z,0.93
2017-12-14T02:11:17.860Z,1.07
2017-12-14T02:13:46.137Z,0.90
2017-12-14T02:19:04.116Z,0.80
2017-12-14T02:21:31.669Z,1.00
2017-12-14T02:23:59.180Z,1.10
2017-12-14T02:26:27.491Z,0.80
2017-12-14T02:28:55.052Z,0.70
2017-12-14T02:31:22.611Z,1.30
2017-12-14T02:33:50.901Z,0.90
2017-12-14T02:36:18.458Z,0.90
2017-12-14T02:38:45.974Z,1.23
2017-12-14T02:41:13.537Z,1.03
2017-12-14T02:43:41.097Z,1.40
2017-12-14T02:46:08.660Z,1.20
2017-12-14T02:48:36.941Z,1.17
2017-12-14T02:51:05.221Z,0.97
2017-12-14T02:53:32.784Z,0.80
2017-12-14T02:56:00.291Z,1.03
2017-12-14T02:58:27.835Z,0.80
2017-12-14T03:00:55.352Z,0.80
2017-12-14T03:03:22.914Z,0.90
2017-12-14T03:05:50.448Z,1.30
2017-12-14T03:08:18.017Z,0.83
2017-12-14T03:10:45.538Z,0.60
2017-12-14T03:13:13.086Z,1.27
2017-12-14T03:15:41.414Z,0.60
2017-12-14T03:18:08.946Z,0.53
2017-12-14T03:20:37.267Z,0.57
2017-12-14T03:23:04.780Z,0.73
2017-12-14T03:25:32.337Z,0.40
2017-12-14T03:27:59.849Z,0.43
2017-12-14T03:30:28.177Z,0.50
2017-12-14T03:32:56.737Z,0.40
2017-12-14T03:35:25.077Z,0.57
2017-12-14T03:37:52.581Z,0.53
2017-12-14T03:40:20.097Z,0.30
2017-12-14T03:42:47.644Z,0.40
2017-12-14T03:45:15.938Z,0.40
2017-12-14T03:47:44.249Z,0.80
2017-12-14T03:50:11.816Z,0.47
2017-12-14T03:52:39.362Z,0.43
2017-12-14T03:55:06.883Z,0.40
2017-12-14T03:57:34.430Z,0.30
2017-12-14T04:00:01.946Z,0.40
2017-12-14T04:02:29.504Z,0.37
2017-12-14T04:04:57.033Z,0.40
2017-12-14T04:07:25.313Z,0.30
2017-12-14T04:09:53.622Z,0.37
2017-12-14T04:12:21.133Z,0.47
2017-12-14T04:14:48.682Z,0.60
2017-12-14T04:17:16.200Z,0.80
2017-12-14T04:19:43.761Z,0.43
2017-12-14T04:22:11.268Z,0.50
2017-12-14T04:24:39.589Z,0.73
2017-12-14T04:27:07.108Z,0.70
2017-12-14T04:29:34.660Z,0.30
2017-12-14T04:32:02.200Z,0.50
2017-12-14T04:34:29.757Z,0.70
2017-12-14T04:36:57.282Z,0.40
2017-12-14T04:39:24.809Z,0.40
2017-12-14T04:41:52.356Z,0.43
2017-12-14T04:44:20.644Z,0.30
2017-12-14T04:46:48.205Z,0.43
2017-12-14T04:49:16.500Z,0.37
2017-12-14T04:51:44.053Z,0.20
2017-12-14T04:54:11.570Z,0.43
2017-12-14T04:56:39.114Z,0.40
2017-12-14T04:59:06.634Z,0.40
2017-12-14T05:01:34.202Z,0.43
2017-12-14T05:04:01.718Z,0.50
2017-12-14T05:06:29.245Z,0.60
2017-12-14T05:08:56.852Z,0.90
2017-12-14T05:11:24.373Z,0.50
2017-12-14T05:13:51.921Z,0.40
2017-12-14T05:16:19.497Z,0.30
2017-12-14T05:18:47.041Z,0.60
2017-12-14T05:21:15.453Z,0.70
2017-12-14T05:23:42.995Z,0.50
2017-12-14T05:26:10.533Z,0.50
2017-12-14T05:28:38.081Z,0.50
2017-12-14T05:31:06.361Z,0.53
2017-12-14T05:33:34.069Z,0.60
2017-12-14T05:36:01.554Z,1.10
2017-12-14T05:38:29.092Z,1.00
2017-12-14T05:40:57.423Z,0.80
2017-12-14T05:43:24.954Z,2.00
2017-12-14T05:45:52.520Z,1.40
2017-12-14T05:48:20.047Z,1.13
2017-12-14T05:50:47.601Z,1.40
2017-12-14T05:53:15.124Z,1.30
2017-12-14T05:55:42.701Z,1.07
2017-12-14T05:58:10.241Z,1.77
2017-12-14T06:00:37.758Z,1.87
2017-12-14T06:03:05.311Z,2.10
2017-12-14T06:05:32.831Z,1.20
2017-12-14T06:08:00.400Z,1.27
2017-12-14T06:10:27.909Z,1.70
2017-12-14T06:12:55.460Z,1.20
2017-12-14T06:15:22.974Z,1.20
2017-12-14T06:17:50.536Z,0.93
2017-12-14T06:20:18.069Z,1.17
2017-12-14T06:22:45.628Z,1.30
2017-12-14T06:25:13.142Z,1.50
2017-12-14T06:27:40.716Z,1.30
2017-12-14T06:30:08.233Z,1.53
2017-12-14T06:32:36.516Z,1.73
2017-12-14T06:35:04.077Z,3.00
2017-12-14T06:37:31.593Z,1.70
2017-12-14T06:39:59.138Z,1.40
2017-12-14T06:42:27.439Z,1.63
2017-12-14T06:44:55.003Z,2.40
2017-12-14T06:47:22.524Z,1.27
2017-12-14T06:49:50.099Z,1.50
2017-12-14T06:52:17.621Z,1.33
2017-12-14T06:54:45.140Z,1.47
2017-12-14T06:57:12.710Z,1.40
2017-12-14T06:59:40.232Z,1.60
2017-12-14T07:02:08.562Z,1.53
2017-12-14T07:04:36.093Z,1.60
2017-12-14T07:07:03.649Z,1.57
2017-12-14T07:09:31.182Z,1.57
2017-12-14T07:11:58.732Z,1.30
2017-12-14T07:14:26.249Z,1.57
2017-12-14T07:16:53.814Z,1.57
2017-12-14T07:19:21.341Z,1.33
2017-12-14T07:21:49.186Z,1.80
2017-12-14T07:24:16.740Z,1.17
2017-12-14T07:26:44.277Z,1.57
2017-12-14T07:29:11.820Z,1.40
2017-12-14T07:31:39.332Z,1.63
2017-12-14T07:34:06.899Z,2.30
2017-12-14T07:36:34.412Z,1.67
2017-12-14T07:39:01.964Z,1.53
2017-12-14T07:41:29.472Z,1.47
2017-12-14T07:44:09.612Z,2.33
2017-12-14T07:46:48.837Z,1.03
2017-12-14T07:49:24.044Z,3.30
2017-12-14T07:51:52.324Z,1.47
2017-12-14T07:54:20.644Z,2.00
2017-12-14T07:56:48.174Z,2.23
2017-12-14T07:59:15.693Z,2.03
2017-12-14T08:01:43.252Z,1.57
2017-12-14T08:04:10.766Z,1.17
2017-12-14T08:06:38.320Z,1.33
2017-12-14T08:09:05.849Z,2.03
2017-12-14T08:11:34.186Z,1.87
2017-12-14T08:14:01.729Z,2.00
2017-12-14T08:16:29.284Z,1.80
2017-12-14T08:18:57.565Z,2.57
2017-12-14T08:21:25.910Z,1.80
2017-12-14T08:23:53.428Z,1.70
2017-12-14T08:26:20.957Z,2.87
2017-12-14T08:28:48.516Z,2.23
2017-12-14T08:31:16.056Z,1.73
2017-12-14T08:33:44.393Z,1.40
2017-12-14T08:36:11.906Z,1.30
2017-12-14T08:38:39.493Z,1.60
2017-12-14T08:41:07.769Z,2.20
2017-12-14T08:43:35.327Z,3.07
2017-12-14T08:46:02.849Z,2.13
2017-12-14T08:48:30.424Z,2.20
2017-12-14T08:50:57.946Z,2.10
2017-12-14T08:53:25.509Z,1.97
2017-12-14T08:55:53.038Z,1.80
2017-12-14T08:58:20.552Z,3.10
2017-12-14T09:00:48.104Z,2.93
2017-12-14T09:03:15.624Z,1.83
2017-12-14T09:05:43.937Z,1.90
2017-12-14T09:08:11.478Z,1.70
2017-12-14T09:10:39.032Z,1.67
2017-12-14T09:13:06.577Z,2.00
2017-12-14T09:15:34.127Z,1.93
2017-12-14T09:18:01.658Z,2.07
2017-12-14T09:20:29.224Z,2.87
2017-12-14T09:22:56.745Z,1.97
2017-12-14T09:25:24.293Z,2.33
2017-12-14T09:27:52.633Z,1.77
2017-12-14T09:30:20.191Z,2.30
2017-12-14T09:32:47.714Z,1.80
2017-12-14T09:35:15.286Z,1.13
2017-12-14T09:37:42.806Z,2.03
2017-12-14T09:40:10.328Z,1.30
2017-12-14T09:42:37.878Z,1.60
2017-12-14T09:45:05.396Z,1.50
2017-12-14T09:47:32.940Z,1.20
2017-12-14T09:50:00.456Z,0.90
2017-12-14T09:52:28.009Z,1.40
2017-12-14T09:54:56.289Z,1.20
2017-12-14T09:57:24.617Z,0.90
2017-12-14T09:59:52.124Z,1.30
2017-12-14T10:02:19.720Z,1.43
2017-12-14T10:04:48.006Z,2.43
2017-12-14T10:07:15.553Z,1.33
2017-12-14T10:09:43.060Z,1.67
2017-12-14T10:12:10.624Z,1.70
2017-12-14T10:14:38.145Z,1.00
2017-12-14T10:17:05.669Z,0.97
2017-12-14T10:19:33.221Z,0.70
2017-12-14T10:22:00.732Z,0.50
2017-12-14T10:24:28.285Z,0.70
2017-12-14T10:26:56.565Z,1.07
2017-12-14T10:29:24.119Z,0.40
2017-12-14T10:31:51.641Z,0.50
2017-12-14T10:34:19.215Z,0.40
2017-12-14T10:36:46.746Z,0.60
2017-12-14T10:39:14.305Z,0.40
2017-12-14T10:41:41.822Z,0.37
2017-12-14T10:44:10.149Z,0.40
2017-12-14T10:46:37.673Z,0.50
2017-12-14T10:49:05.952Z,0.40
2017-12-14T10:51:33.505Z,0.60
2017-12-14T10:54:01.024Z,0.70
2017-12-14T10:56:28.569Z,0.90
2017-12-14T10:58:56.084Z,1.13
2017-12-14T11:01:30.228Z,1.00
2017-12-14T11:03:57.728Z,0.70
2017-12-14T11:06:25.292Z,0.80
2017-12-14T11:08:52.820Z,1.17
2017-12-14T11:11:20.385Z,2.10
2017-12-14T11:13:47.920Z,1.10
2017-12-14T11:16:15.438Z,1.00
2017-12-14T11:18:42.989Z,0.73
2017-12-14T11:21:11.272Z,0.97
2017-12-14T11:23:39.616Z,1.60
2017-12-14T11:26:07.144Z,1.23
2017-12-14T11:28:34.700Z,1.80
2017-12-14T11:31:02.229Z,0.87
2017-12-14T11:33:29.799Z,1.07
2017-12-14T11:35:57.325Z,1.37
2017-12-14T11:38:25.656Z,1.17
2017-12-14T11:40:53.180Z,1.50
2017-12-14T11:43:21.499Z,1.10
2017-12-14T11:45:49.061Z,0.73
2017-12-14T11:48:16.592Z,1.13
2017-12-14T11:50:44.141Z,1.00
2017-12-14T11:53:11.673Z,1.37
2017-12-14T11:55:39.247Z,1.03
2017-12-14T11:58:07.634Z,1.17
2017-12-14T12:00:35.957Z,1.20
2017-12-14T12:03:03.481Z,1.07
2017-12-14T12:05:31.803Z,1.00
2017-12-14T12:07:59.316Z,1.03
2017-12-14T12:10:26.900Z,1.13
2017-12-14T12:12:54.420Z,3.20
2017-12-14T12:15:21.953Z,1.63
2017-12-14T12:17:49.504Z,1.03
2017-12-14T12:20:17.177Z,1.27
2017-12-14T12:22:44.801Z,0.90
2017-12-14T12:25:12.367Z,0.90
2017-12-14T12:27:39.937Z,1.20
2017-12-14T12:30:17.524Z,0.70
2017-12-14T12:32:45.079Z,0.67
2017-12-14T12:35:13.491Z,1.03
2017-12-14T12:37:41.087Z,1.13
2017-12-14T12:40:08.720Z,0.73
2017-12-14T12:42:37.052Z,0.50
2017-12-14T12:45:04.629Z,0.50
2017-12-14T12:47:32.965Z,0.70
2017-12-14T12:50:00.650Z,0.50
2017-12-14T12:52:28.168Z,0.50
2017-12-14T12:54:55.773Z,0.50
2017-12-14T12:57:23.293Z,0.60
2017-12-14T12:59:50.873Z,0.60
2017-12-14T13:02:19.153Z,0.57
2017-12-14T13:04:46.717Z,0.90
2017-12-14T13:07:14.230Z,0.60
2017-12-14T13:09:41.749Z,0.70
2017-12-14T13:12:09.308Z,0.67
2017-12-14T13:14:36.824Z,0.93
2017-12-14T13:17:05.148Z,0.63
2017-12-14T13:19:32.661Z,0.53
2017-12-14T13:22:00.213Z,0.50
2017-12-14T13:24:27.859Z,0.43
2017-12-14T13:26:55.412Z,0.50
2017-12-14T13:29:23.685Z,0.70
2017-12-14T13:31:52.039Z,0.77
2017-12-14T13:34:19.565Z,0.67
2017-12-14T13:36:47.129Z,0.40
2017-12-14T13:39:14.646Z,0.60
2017-12-14T13:41:42.201Z,0.47
2017-12-14T13:44:09.713Z,0.40
2017-12-14T13:46:37.272Z,0.80
2017-12-14T13:49:04.793Z,0.60
2017-12-14T13:51:32.302Z,0.83
2017-12-14T13:53:59.855Z,0.60
2017-12-14T13:56:27.363Z,0.63
2017-12-14T13:58:54.969Z,0.70
2017-12-14T14:01:22.485Z,0.50
2017-12-14T14:03:50.048Z,0.67
2017-12-14T14:06:17.585Z,0.60
2017-12-14T14:08:46.121Z,0.40
2017-12-14T14:11:13.633Z,0.70
2017-12-14T14:13:41.186Z,0.77
2017-12-14T14:16:08.712Z,0.80
2017-12-14T14:18:36.277Z,0.70
2017-12-14T14:21:04.557Z,0.60
2017-12-14T14:23:32.065Z,0.40
2017-12-14T14:25:59.617Z,0.70
2017-12-14T14:28:27.899Z,0.50
2017-12-14T14:30:56.216Z,0.40
2017-12-14T14:33:24.497Z,0.77
2017-12-14T14:35:52.052Z,0.60
2017-12-14T14:38:20.333Z,0.90
2017-12-14T14:40:48.669Z,0.60
2017-12-14T14:43:16.261Z,0.37
2017-12-14T14:45:43.851Z,0.50
2017-12-14T14:48:11.365Z,0.70
2017-12-14T14:50:38.910Z,0.60
2017-12-14T14:53:06.445Z,0.90
2017-12-14T14:55:34.006Z,0.90
2017-12-14T14:58:02.329Z,0.80
2017-12-14T15:00:29.856Z,0.60
2017-12-14T15:02:57.401Z,1.03
2017-12-14T15:05:25.704Z,0.90
2017-12-14T15:07:54.019Z,0.87
2017-12-14T15:10:21.550Z,0.87
2017-12-14T15:12:49.869Z,0.87
2017-12-14T15:15:17.385Z,0.90
2017-12-14T15:17:44.941Z,0.70
2017-12-14T15:20:12.502Z,0.80
2017-12-14T15:22:40.053Z,0.70
2017-12-14T15:25:07.569Z,0.70
2017-12-14T15:27:35.907Z,0.77
2017-12-14T15:30:03.574Z,0.77
2017-12-14T15:32:31.921Z,0.60
2017-12-14T15:34:59.431Z,2.33
2017-12-14T15:37:27.713Z,0.77
2017-12-14T15:39:55.267Z,0.53
2017-12-14T15:42:22.784Z,1.70
2017-12-14T15:44:50.347Z,0.80
2017-12-14T15:47:17.885Z,4.30
2017-12-14T15:49:45.449Z,1.07
2017-12-14T15:52:12.982Z,0.73
2017-12-14T15:54:40.534Z,1.27
2017-12-14T15:57:08.812Z,0.90
2017-12-14T15:59:36.398Z,0.60
2017-12-14T16:02:04.690Z,0.73
2017-12-14T16:04:32.270Z,0.47
2017-12-14T16:06:59.789Z,0.53
2017-12-14T16:09:27.364Z,0.60
2017-12-14T16:11:54.886Z,0.50
2017-12-14T16:14:22.405Z,0.80
2017-12-14T16:16:49.956Z,0.60
2017-12-14T16:19:17.489Z,0.70
2017-12-14T16:21:45.058Z,0.60
2017-12-14T16:24:13.356Z,1.10
2017-12-14T16:26:40.904Z,2.30
2017-12-14T16:29:08.427Z,2.73
2017-12-14T16:31:35.973Z,2.10
2017-12-14T16:34:04.267Z,1.17
2017-12-14T16:36:31.835Z,1.37
2017-12-14T16:39:00.160Z,0.90
2017-12-14T16:41:27.677Z,0.67
2017-12-14T16:43:55.222Z,1.10
2017-12-14T16:46:22.735Z,1.30
2017-12-14T16:48:50.285Z,1.20
2017-12-14T16:51:17.800Z,0.90
2017-12-14T16:53:45.348Z,1.13
2017-12-14T16:56:13.628Z,0.90
2017-12-14T16:58:41.949Z,1.20
2017-12-14T17:01:09.481Z,1.00
2017-12-14T17:03:37.056Z,1.10
2017-12-14T17:06:04.577Z,1.20
2017-12-14T17:08:32.093Z,1.10
2017-12-14T17:10:59.695Z,0.80
2017-12-14T17:13:27.214Z,1.60
2017-12-14T17:15:54.801Z,1.03
2017-12-14T17:18:22.325Z,1.43
2017-12-14T17:20:49.881Z,1.90
2017-12-14T17:23:17.419Z,1.30
2017-12-14T17:25:44.960Z,1.63
2017-12-14T17:28:12.495Z,1.67
2017-12-14T17:30:40.817Z,2.17
2017-12-14T17:33:08.353Z,1.93
2017-12-14T17:35:36.668Z,2.20
2017-12-14T17:38:04.205Z,1.77
2017-12-14T17:40:31.764Z,2.70
2017-12-14T17:42:59.293Z,2.30
2017-12-14T17:45:26.818Z,2.30
2017-12-14T17:47:54.370Z,2.27
2017-12-14T17:50:21.915Z,2.07
2017-12-14T17:52:49.478Z,1.63
2017-12-14T17:55:17.021Z,2.00
2017-12-14T17:57:45.333Z,1.90
2017-12-14T18:00:12.851Z,2.23
2017-12-14T18:02:40.413Z,2.50
2017-12-14T18:05:07.947Z,2.17
2017-12-14T18:07:35.501Z,2.17
2017-12-14T18:10:03.776Z,2.33
2017-12-14T18:12:31.357Z,2.33
2017-12-14T18:14:59.638Z,2.00
2017-12-14T18:17:27.165Z,2.30
2017-12-14T18:19:54.721Z,2.63
2017-12-14T18:22:22.269Z,2.10
2017-12-14T18:24:50.599Z,2.67
2017-12-14T18:27:18.121Z,2.30
2017-12-14T18:29:45.672Z,2.40
2017-12-14T18:32:13.192Z,2.30
2017-12-14T18:34:40.741Z,2.20
2017-12-14T18:37:09.021Z,2.87
2017-12-14T18:39:36.577Z,2.70
2017-12-14T18:42:04.093Z,3.20
2017-12-14T18:44:31.615Z,3.07
2017-12-14T18:46:59.192Z,3.33
2017-12-14T18:49:26.703Z,3.97
2017-12-14T18:51:54.269Z,4.30
2017-12-14T18:54:22.562Z,4.70
2017-12-14T18:56:50.116Z,4.63
2017-12-14T18:59:17.628Z,3.80
2017-12-14T19:01:45.303Z,3.07
2017-12-14T19:04:12.828Z,2.97
2017-12-14T19:06:40.390Z,2.20
2017-12-14T19:09:07.924Z,3.53
2017-12-14T19:11:35.483Z,3.07
2017-12-14T19:14:03.067Z,2.67
2017-12-14T19:16:30.629Z,2.73
2017-12-14T19:18:58.155Z,3.27
2017-12-14T19:21:25.671Z,3.37
2017-12-14T19:23:53.224Z,3.67
2017-12-14T19:26:21.505Z,3.33
2017-12-14T19:28:49.053Z,3.13
2017-12-14T19:31:16.576Z,3.60
2017-12-14T19:33:44.136Z,4.10
2017-12-14T19:36:12.431Z,2.53
2017-12-14T19:38:39.989Z,2.97
2017-12-14T19:41:08.516Z,2.73
2017-12-14T19:43:36.106Z,3.17
2017-12-14T19:46:03.626Z,3.20
2017-12-14T19:48:31.946Z,2.60
2017-12-14T19:51:00.278Z,3.27
2017-12-14T19:53:27.789Z,3.70
2017-12-14T19:55:56.106Z,4.00
2017-12-14T19:58:23.626Z,4.27
2017-12-14T20:00:51.241Z,4.03
2017-12-14T20:03:18.736Z,3.57
2017-12-14T20:05:46.301Z,3.00
2017-12-14T20:08:13.828Z,3.60
2017-12-14T20:10:42.143Z,3.17
2017-12-14T20:13:09.668Z,3.60
2017-12-14T20:15:37.307Z,3.43
2017-12-14T20:18:04.832Z,2.80
2017-12-14T20:20:32.373Z,3.23
2017-12-14T20:22:59.945Z,3.23
2017-12-14T20:25:27.709Z,3.13
2017-12-14T20:27:55.265Z,4.10
2017-12-14T20:30:22.817Z,3.30
2017-12-14T20:32:50.369Z,3.53
2017-12-14T20:35:17.890Z,2.67
2017-12-14T20:37:45.442Z,4.33
2017-12-14T20:40:12.971Z,3.43
2017-12-14T20:42:40.521Z,2.80
2017-12-14T20:45:08.049Z,2.40
2017-12-14T20:47:36.369Z,2.13
2017-12-14T20:50:03.893Z,2.80
2017-12-14T20:52:31.498Z,2.17
2017-12-14T20:54:59.013Z,2.27
2017-12-14T20:57:26.541Z,1.93
2017-12-14T20:59:54.104Z,2.40
2017-12-14T21:02:21.616Z,1.93
2017-12-14T21:04:49.175Z,1.90
2017-12-14T21:07:16.692Z,2.17
2017-12-14T21:09:44.256Z,2.47
2017-12-14T21:12:11.777Z,1.70
2017-12-14T21:14:39.345Z,2.00
2017-12-14T21:17:06.861Z,1.60
2017-12-14T21:19:34.416Z,2.13
2017-12-14T21:22:01.941Z,1.20
2017-12-14T21:24:30.253Z,1.57
2017-12-14T21:26:57.782Z,1.80
2017-12-14T21:29:25.343Z,1.43
2017-12-14T21:31:52.868Z,1.77
2017-12-14T21:34:20.456Z,1.60
2017-12-14T21:36:48.017Z,1.43
2017-12-14T21:39:15.537Z,1.30
2017-12-14T21:41:43.146Z,2.20
2017-12-14T21:44:10.638Z,2.23
2017-12-14T21:46:38.188Z,2.90
2017-12-14T21:49:05.714Z,1.50
2017-12-14T21:51:33.266Z,2.27
2017-12-14T21:54:00.795Z,1.87
2017-12-14T21:56:29.123Z,3.00
2017-12-14T21:58:56.650Z,3.27
2017-12-14T22:01:25.018Z,2.30
2017-12-14T22:03:52.544Z,2.37
2017-12-14T22:06:20.122Z,2.97
2017-12-14T22:08:47.645Z,3.03
2017-12-14T22:11:15.182Z,3.10
2017-12-14T22:13:42.728Z,2.80
2017-12-14T22:16:10.251Z,3.03
2017-12-14T22:18:37.806Z,3.80
2017-12-14T22:21:05.331Z,2.73
2017-12-14T22:23:33.650Z,2.50
2017-12-14T22:26:01.161Z,2.20
2017-12-14T22:28:28.718Z,2.70
2017-12-14T22:30:56.243Z,2.73
2017-12-14T22:33:23.797Z,2.93
2017-12-14T22:35:52.072Z,3.27
2017-12-14T22:38:19.791Z,3.53
2017-12-14T22:40:47.314Z,3.83
2017-12-14T22:43:14.829Z,3.90
2017-12-14T22:45:42.385Z,4.70
2017-12-14T22:48:09.900Z,4.07
2017-12-14T22:50:37.450Z,4.10
2017-12-14T22:53:04.969Z,4.80
2017-12-14T22:55:32.509Z,4.47
2017-12-14T22:58:00.020Z,2.20
2017-12-14T23:00:27.573Z,3.30
2017-12-14T23:02:55.105Z,2.60
2017-12-14T23:05:22.674Z,3.80
2017-12-14T23:07:50.201Z,3.03
2017-12-14T23:10:17.712Z,4.10
2017-12-14T23:12:46.026Z,3.27
2017-12-14T23:15:13.737Z,2.73
2017-12-14T23:17:41.296Z,2.70
2017-12-14T23:20:08.810Z,2.60
2017-12-14T23:22:37.137Z,2.27
2017-12-14T23:25:04.676Z,2.60
2017-12-14T23:27:32.241Z,3.20
2017-12-14T23:30:00.521Z,2.43
2017-12-14T23:32:28.041Z,2.27
2017-12-14T23:34:55.585Z,1.90
2017-12-14T23:37:23.115Z,2.50
2017-12-14T23:39:50.661Z,2.77
2017-12-14T23:42:18.180Z,3.03
2017-12-14T23:44:45.738Z,3.47
2017-12-14T23:47:13.254Z,3.03
2017-12-14T23:49:40.806Z,1.60
2017-12-14T23:52:09.091Z,1.83
2017-12-14T23:54:36.629Z,1.43
2017-12-14T23:57:04.145Z,2.07
2017-12-14T23:59:32.457Z,1.80
